Time;durP1;ratioP1;P1;durP2;ratioP2;P2;SDS_P1;SDS_P2;PMS_P1;PMS_P2;Temp;Humidity;BMP_temperature;BMP_pressure;BME280_temperature;BME280_humidity;BME280_pressure;Samples;Min_cycle;Max_cycle;Signal;HPM_P1;HPM_P2
2023/06/15 00:02:47;;;;;;;8.38;3.53;;;15.30;99.90;;;;;;4899221;29;20044;-79
2023/06/15 00:05:31;;;;;;;6.55;3.40;;;15.30;99.90;;;;;;4881978;29;20088;-78
2023/06/15 00:08:20;;;;;;;4.95;3.22;;;15.30;99.90;;;;;;4895925;29;20051;-78
2023/06/15 00:10:52;;;;;;;4.80;3.50;;;15.30;99.90;;;;;;4899121;29;20044;-77
2023/06/15 00:14:08;;;;;;;6.95;3.20;;;15.20;99.90;;;;;;4884120;29;20053;-77
2023/06/15 00:16:52;;;;;;;6.95;3.63;;;15.20;99.90;;;;;;4904884;29;20148;-77
2023/06/15 00:19:44;;;;;;;7.32;3.33;;;15.20;99.90;;;;;;4883806;29;20100;-77
2023/06/15 00:23:02;;;;;;;6.90;3.92;;;15.10;99.90;;;;;;4879691;29;20143;-78
2023/06/15 00:25:45;;;;;;;5.00;3.75;;;15.10;99.90;;;;;;4893490;29;20056;-77
2023/06/15 00:28:27;;;;;;;6.72;4.00;;;14.90;99.90;;;;;;4896662;29;20053;-77
2023/06/15 00:31:13;;;;;;;4.82;3.42;;;14.80;99.90;;;;;;4905372;29;20040;-77
2023/06/15 00:33:47;;;;;;;5.03;3.20;;;14.80;99.90;;;;;;4888206;29;20064;-77
2023/06/15 00:36:28;;;;;;;5.15;3.60;;;14.80;99.90;;;;;;4903750;29;20056;-78
2023/06/15 00:39:11;;;;;;;7.00;3.70;;;14.80;99.90;;;;;;4896627;29;20062;-77
2023/06/15 00:42:10;;;;;;;4.72;3.83;;;14.70;99.90;;;;;;4882133;29;20411;-77
2023/06/15 00:44:47;;;;;;;5.53;3.85;;;14.70;99.90;;;;;;4872794;29;20044;-77
2023/06/15 00:47:26;;;;;;;5.40;3.83;;;14.60;99.90;;;;;;4888005;29;20048;-77
2023/06/15 00:49:58;;;;;;;6.53;3.78;;;14.50;99.90;;;;;;4883402;29;20142;-77
2023/06/15 00:52:37;;;;;;;5.57;3.72;;;14.50;99.90;;;;;;4889092;29;20134;-77
2023/06/15 00:58:20;;;;;;;5.43;3.88;;;14.40;99.90;;;;;;4896124;29;20053;-77
2023/06/15 01:01:18;;;;;;;5.25;4.30;;;14.20;99.90;;;;;;4894078;29;20127;-77
2023/06/15 01:03:54;;;;;;;6.55;4.63;;;14.10;99.90;;;;;;4881554;29;20053;-77
2023/06/15 01:06:51;;;;;;;8.55;5.00;;;14.10;99.90;;;;;;4894249;29;20052;-78
2023/06/15 01:09:25;;;;;;;6.85;4.53;;;13.90;99.90;;;;;;4900291;29;20122;-77
2023/06/15 01:12:18;;;;;;;6.53;4.70;;;13.80;99.90;;;;;;4856834;29;20073;-77
2023/06/15 01:14:57;;;;;;;7.20;4.95;;;13.70;99.90;;;;;;4903164;29;20099;-77
2023/06/15 01:17:32;;;;;;;5.18;4.47;;;13.70;99.90;;;;;;4888839;29;20048;-78
2023/06/15 01:20:09;;;;;;;6.00;4.97;;;13.60;99.90;;;;;;4865681;29;20052;-78
2023/06/15 01:23:01;;;;;;;5.10;4.60;;;13.50;99.90;;;;;;4888478;29;20052;-77
2023/06/15 01:25:55;;;;;;;6.35;4.85;;;13.50;99.90;;;;;;4901920;29;20036;-77
2023/06/15 01:31:55;;;;;;;6.78;5.53;;;13.30;99.90;;;;;;4911993;29;20040;-77
2023/06/15 01:34:32;;;;;;;8.25;5.32;;;13.30;99.90;;;;;;4919431;29;20044;-77
2023/06/15 01:37:07;;;;;;;5.88;4.88;;;13.20;99.90;;;;;;4870585;29;20052;-78
2023/06/15 01:39:44;;;;;;;7.15;5.18;;;13.20;99.90;;;;;;4900146;29;20048;-77
2023/06/15 01:42:14;;;;;;;8.48;5.10;;;13.10;99.90;;;;;;4886905;29;20048;-78
2023/06/15 01:44:58;;;;;;;6.80;5.05;;;13.00;99.90;;;;;;4883460;29;20471;-78
2023/06/15 01:47:34;;;;;;;5.80;5.03;;;12.90;99.90;;;;;;4901179;29;20577;-78
2023/06/15 01:50:13;;;;;;;7.13;5.18;;;12.90;99.90;;;;;;4887632;29;20036;-78
2023/06/15 01:52:57;;;;;;;7.57;5.17;;;12.90;99.90;;;;;;4895123;29;20040;-78
2023/06/15 01:55:42;;;;;;;6.18;5.25;;;12.70;99.90;;;;;;4885989;29;20048;-78
2023/06/15 01:58:41;;;;;;;6.45;5.53;;;12.80;99.90;;;;;;4895245;29;20083;-78
2023/06/15 02:01:28;;;;;;;6.50;5.70;;;12.70;99.90;;;;;;4876691;29;20075;-78
2023/06/15 02:04:17;;;;;;;9.35;6.00;;;12.60;99.90;;;;;;4886271;29;20047;-77
2023/06/15 02:06:48;;;;;;;6.38;5.45;;;12.60;99.90;;;;;;4868410;29;20047;-78
2023/06/15 02:09:14;;;;;;;6.10;5.50;;;12.60;99.90;;;;;;4874457;29;20044;-78
2023/06/15 02:12:05;;;;;;;7.03;5.85;;;12.50;99.90;;;;;;4892036;29;20044;-78
2023/06/15 02:14:44;;;;;;;6.63;6.03;;;12.50;99.90;;;;;;4891453;29;20036;-78
2023/06/15 02:17:31;;;;;;;7.03;6.32;;;12.50;99.90;;;;;;4870783;29;20047;-77
2023/06/15 02:20:14;;;;;;;7.82;6.90;;;12.50;99.90;;;;;;4862083;29;20512;-78
2023/06/15 02:22:41;;;;;;;6.97;6.25;;;12.40;99.90;;;;;;4885853;29;20056;-78
2023/06/15 02:25:28;;;;;;;7.38;6.53;;;12.30;99.90;;;;;;4892081;29;20320;-77
2023/06/15 02:28:10;;;;;;;9.73;7.28;;;12.40;99.90;;;;;;4889302;29;20044;-78
2023/06/15 02:30:57;;;;;;;6.90;6.22;;;12.30;99.90;;;;;;4882798;29;20044;-78
2023/06/15 02:33:41;;;;;;;9.23;7.38;;;12.30;99.90;;;;;;4897732;29;20415;-78
2023/06/15 02:36:25;;;;;;;7.15;6.45;;;12.30;99.90;;;;;;4898324;29;20074;-78
2023/06/15 02:39:16;;;;;;;7.95;7.03;;;12.20;99.90;;;;;;4903153;29;20063;-78
2023/06/15 02:41:51;;;;;;;8.18;7.38;;;12.20;99.90;;;;;;4886811;29;20048;-78
2023/06/15 02:44:28;;;;;;;9.00;7.57;;;12.20;99.90;;;;;;4885092;29;20048;-78
2023/06/15 02:47:00;;;;;;;8.45;7.40;;;12.10;99.90;;;;;;4887208;29;20036;-78
2023/06/15 02:49:46;;;;;;;8.95;8.25;;;12.10;99.90;;;;;;4885064;29;20044;-77
2023/06/15 02:52:20;;;;;;;8.95;8.23;;;12.10;99.90;;;;;;4881006;29;20036;-77
2023/06/15 02:54:58;;;;;;;10.48;8.38;;;12.00;99.90;;;;;;4911622;29;20055;-77
2023/06/15 02:57:52;;;;;;;10.13;8.95;;;12.00;99.90;;;;;;4902322;29;20550;-77
2023/06/15 03:00:36;;;;;;;8.63;7.70;;;12.00;99.90;;;;;;4911638;29;20091;-77
2023/06/15 03:03:05;;;;;;;10.35;8.27;;;11.80;99.90;;;;;;4882457;29;20407;-77
2023/06/15 03:05:35;;;;;;;9.38;8.57;;;11.90;99.90;;;;;;4878719;29;20115;-77
2023/06/15 03:08:07;;;;;;;9.60;8.70;;;11.80;99.90;;;;;;4900950;29;20510;-78
2023/06/15 03:10:42;;;;;;;9.90;9.00;;;11.80;99.90;;;;;;4884991;29;20174;-77
2023/06/15 03:13:25;;;;;;;10.52;9.40;;;11.80;99.90;;;;;;4878000;29;20096;-77
2023/06/15 03:16:02;;;;;;;10.98;10.07;;;11.80;99.90;;;;;;4887677;29;20040;-77
2023/06/15 03:18:42;;;;;;;11.27;9.57;;;11.80;99.90;;;;;;4895209;29;20044;-77
2023/06/15 03:21:18;;;;;;;10.68;9.18;;;11.70;99.90;;;;;;4870948;29;20048;-77
2023/06/15 03:23:51;;;;;;;10.68;9.60;;;11.70;99.90;;;;;;4883005;29;20041;-77
2023/06/15 03:26:34;;;;;;;11.55;9.85;;;11.70;99.90;;;;;;4902098;29;20044;-77
2023/06/15 03:29:08;;;;;;;11.00;9.90;;;11.80;99.90;;;;;;4871593;29;20455;-77
2023/06/15 03:31:40;;;;;;;10.63;9.60;;;11.70;99.90;;;;;;4877212;29;20044;-77
2023/06/15 03:34:10;;;;;;;10.90;9.90;;;11.70;99.90;;;;;;4918260;29;20455;-77
2023/06/15 03:36:43;;;;;;;10.60;9.50;;;11.70;99.90;;;;;;4887455;29;20130;-78
2023/06/15 03:39:09;;;;;;;10.70;9.68;;;11.70;99.90;;;;;;4888393;29;20048;-77
2023/06/15 03:41:38;;;;;;;10.65;9.75;;;11.70;99.90;;;;;;4888130;29;20486;-77
2023/06/15 03:44:08;;;;;;;10.43;9.52;;;11.70;99.90;;;;;;4920066;29;20052;-77
2023/06/15 03:46:36;;;;;;;10.63;9.73;;;11.60;99.90;;;;;;4888589;29;20051;-77
2023/06/15 03:49:05;;;;;;;10.95;9.90;;;11.70;99.90;;;;;;4885732;29;20083;-77
2023/06/15 03:51:31;;;;;;;10.77;9.77;;;11.70;99.90;;;;;;4901106;29;20369;-77
2023/06/15 03:53:58;;;;;;;9.88;9.07;;;11.70;99.90;;;;;;4876682;29;20558;-77
2023/06/15 03:56:24;;;;;;;10.02;9.02;;;11.70;99.90;;;;;;4886637;29;20407;-77
2023/06/15 03:58:50;;;;;;;11.43;10.27;;;11.80;99.90;;;;;;4878940;29;20127;-77
2023/06/15 04:01:16;;;;;;;11.95;10.13;;;11.70;99.90;;;;;;4900647;29;20076;-77
2023/06/15 04:03:42;;;;;;;10.18;9.15;;;11.80;99.90;;;;;;4900391;29;20065;-77
2023/06/15 04:06:11;;;;;;;10.23;9.23;;;11.80;99.90;;;;;;4870084;29;20084;-78
2023/06/15 04:08:43;;;;;;;10.73;9.65;;;11.90;99.90;;;;;;4881632;29;20047;-77
2023/06/15 04:11:11;;;;;;;10.13;9.07;;;11.90;99.90;;;;;;4893639;29;20055;-77
2023/06/15 04:13:43;;;;;;;9.90;8.90;;;12.00;99.90;;;;;;4899458;29;20048;-77
2023/06/15 04:16:12;;;;;;;10.70;8.70;;;12.00;99.90;;;;;;4887476;29;20123;-77
2023/06/15 04:18:42;;;;;;;11.05;9.02;;;12.00;99.90;;;;;;4883678;29;20104;-77
2023/06/15 04:21:10;;;;;;;8.65;7.85;;;12.10;99.90;;;;;;4884014;29;20048;-77
2023/06/15 04:23:43;;;;;;;9.50;8.60;;;12.30;99.90;;;;;;4887356;29;20107;-77
2023/06/15 04:26:16;;;;;;;12.48;8.52;;;12.60;99.90;;;;;;4873235;29;20052;-77
2023/06/15 04:28:49;;;;;;;8.63;7.93;;;13.20;99.90;;;;;;4888367;29;20040;-77
2023/06/15 04:31:20;;;;;;;9.05;8.15;;;13.80;99.90;;;;;;4903203;29;20075;-78
2023/06/15 04:33:59;;;;;;;10.50;7.80;;;14.50;99.90;;;;;;4867289;29;20043;-77
2023/06/15 04:36:31;;;;;;;9.63;7.88;;;15.10;99.90;;;;;;4885699;29;20043;-77
2023/06/15 04:39:08;;;;;;;8.70;7.40;;;15.50;99.90;;;;;;4889887;29;20047;-78
2023/06/15 04:41:39;;;;;;;9.80;7.43;;;16.10;99.90;;;;;;4887882;29;20045;-77
2023/06/15 04:44:18;;;;;;;10.30;7.30;;;16.40;99.90;;;;;;4888884;29;20068;-77
2023/06/15 04:46:54;;;;;;;7.88;6.93;;;16.60;99.90;;;;;;4873184;29;20484;-77
2023/06/15 04:49:30;;;;;;;8.80;6.70;;;17.00;99.90;;;;;;4884284;29;20135;-77
2023/06/15 04:51:59;;;;;;;7.13;6.25;;;17.20;99.90;;;;;;4889540;29;20036;-77
2023/06/15 04:54:27;;;;;;;8.52;6.57;;;17.40;99.90;;;;;;4887486;29;20054;-77
2023/06/15 04:56:57;;;;;;;8.00;6.53;;;17.60;99.90;;;;;;4886747;29;20106;-77
2023/06/15 04:59:22;;;;;;;8.05;6.93;;;17.90;99.90;;;;;;4888454;29;20099;-77
2023/06/15 05:01:53;;;;;;;8.68;6.72;;;18.20;99.90;;;;;;4882539;29;20040;-78
2023/06/15 05:04:32;;;;;;;7.70;5.78;;;18.50;99.90;;;;;;4881048;29;20070;-78
2023/06/15 05:07:05;;;;;;;7.65;6.05;;;18.70;99.90;;;;;;4901745;29;20040;-77
2023/06/15 05:09:31;;;;;;;7.30;5.60;;;18.80;99.90;;;;;;4879587;29;20065;-78
2023/06/15 05:11:58;;;;;;;9.25;5.95;;;19.10;99.90;;;;;;4885281;29;20048;-78
2023/06/15 05:14:26;;;;;;;7.15;6.25;;;19.10;99.90;;;;;;4885920;29;20040;-75
2023/06/15 05:16:53;;;;;;;8.05;5.63;;;19.30;99.90;;;;;;4885456;29;20080;-77
2023/06/15 05:19:28;;;;;;;6.70;5.80;;;19.60;99.90;;;;;;4882799;29;20059;-77
2023/06/15 05:21:59;;;;;;;7.95;5.70;;;19.80;99.90;;;;;;4885143;29;20051;-76
2023/06/15 05:24:25;;;;;;;7.45;5.40;;;20.10;99.90;;;;;;4895858;29;20055;-77
2023/06/15 05:26:51;;;;;;;6.70;5.22;;;20.40;99.90;;;;;;4880370;29;20036;-78
2023/06/15 05:29:22;;;;;;;6.70;5.50;;;20.60;98.40;;;;;;4879018;29;20507;-78
2023/06/15 05:31:48;;;;;;;9.07;5.25;;;20.90;97.30;;;;;;4883771;29;20051;-77
2023/06/15 05:34:14;;;;;;;8.65;5.53;;;21.30;90.90;;;;;;4885723;29;20379;-77
2023/06/15 05:36:43;;;;;;;7.03;4.82;;;21.50;88.00;;;;;;4880539;29;20080;-77
2023/06/15 05:39:16;;;;;;;8.43;5.20;;;21.80;79.30;;;;;;4890865;29;20080;-77
2023/06/15 05:41:42;;;;;;;8.38;4.85;;;21.90;81.90;;;;;;4888190;29;20129;-76
2023/06/15 05:44:08;;;;;;;6.35;5.57;;;21.90;76.50;;;;;;4882014;29;20537;-76
2023/06/15 05:46:38;;;;;;;7.40;4.80;;;22.00;74.50;;;;;;4890209;29;20049;-76
2023/06/15 05:49:09;;;;;;;8.60;4.60;;;21.90;72.60;;;;;;4889670;29;20114;-76
2023/06/15 05:51:41;;;;;;;7.03;4.60;;;22.00;73.50;;;;;;4889309;29;20040;-76
2023/06/15 05:54:09;;;;;;;8.23;4.70;;;22.10;73.30;;;;;;4889490;29;20044;-76
2023/06/15 05:56:35;;;;;;;7.45;4.60;;;22.30;70.00;;;;;;4886512;29;20060;-76
2023/06/15 05:59:01;;;;;;;8.60;4.50;;;22.30;70.00;;;;;;4880348;29;20043;-76
2023/06/15 06:01:41;;;;;;;5.97;4.25;;;22.30;67.80;;;;;;4905194;29;20046;-76
2023/06/15 06:04:10;;;;;;;6.72;4.43;;;21.70;66.80;;;;;;4880269;29;20468;-75
2023/06/15 06:06:44;;;;;;;8.50;4.43;;;21.10;68.80;;;;;;4875328;29;20043;-76
2023/06/15 06:09:12;;;;;;;6.88;4.55;;;20.50;72.50;;;;;;4899260;29;20048;-75
2023/06/15 06:11:51;;;;;;;6.80;4.10;;;20.20;72.80;;;;;;4884553;29;20040;-74
2023/06/15 06:17:51;;;;;;;;;;;19.80;76.80;;;;;;4900195;29;20043;-76
2023/06/15 06:20:17;;;;;;;7.95;4.20;;;19.60;77.50;;;;;;4898759;29;20482;-76
2023/06/15 06:22:43;;;;;;;7.97;3.70;;;19.70;77.80;;;;;;4899138;29;20051;-75
2023/06/15 06:25:09;;;;;;;7.90;3.70;;;19.50;84.70;;;;;;4883537;29;20052;-76
2023/06/15 06:27:37;;;;;;;4.82;3.38;;;19.60;85.80;;;;;;4875464;29;20044;-76
2023/06/15 06:30:03;;;;;;;5.57;3.65;;;19.60;77.80;;;;;;4883443;29;20044;-76
2023/06/15 06:32:29;;;;;;;11.10;3.72;;;19.50;80.10;;;;;;4884253;29;20176;-76
2023/06/15 06:34:54;;;;;;;5.30;3.33;;;19.60;77.60;;;;;;4883981;29;20518;-76
2023/06/15 06:37:20;;;;;;;5.75;3.47;;;19.60;77.40;;;;;;4898738;29;20523;-76
2023/06/15 06:39:46;;;;;;;4.30;3.05;;;19.70;77.30;;;;;;4883680;29;20080;-76
2023/06/15 06:42:12;;;;;;;5.22;2.90;;;19.80;76.50;;;;;;4891280;29;20131;-76
2023/06/15 06:44:38;;;;;;;4.60;3.10;;;19.90;75.60;;;;;;4879970;29;20048;-76
2023/06/15 06:47:04;;;;;;;3.97;2.80;;;20.00;71.80;;;;;;4878691;29;20105;-76
2023/06/15 06:49:30;;;;;;;6.38;3.20;;;20.20;69.30;;;;;;4899109;29;20586;-76
2023/06/15 06:51:56;;;;;;;4.38;2.88;;;20.20;68.60;;;;;;4884064;29;20048;-76
2023/06/15 06:54:23;;;;;;;5.72;3.40;;;20.30;68.70;;;;;;4875157;29;20047;-75
2023/06/15 06:56:49;;;;;;;5.45;3.30;;;20.30;67.90;;;;;;4883007;29;20044;-75
2023/06/15 06:59:15;;;;;;;4.88;3.10;;;20.30;67.60;;;;;;4875464;29;20431;-75
2023/06/15 07:01:42;;;;;;;5.75;3.50;;;20.40;67.60;;;;;;4898865;29;20418;-75
2023/06/15 07:04:08;;;;;;;4.15;3.20;;;20.40;67.10;;;;;;4884050;29;20044;-75
2023/06/15 07:06:34;;;;;;;9.65;3.50;;;20.60;67.30;;;;;;4882481;29;20411;-75
2023/06/15 07:09:02;;;;;;;6.93;3.55;;;20.70;67.00;;;;;;4882729;29;20048;-76
2023/06/15 07:11:28;;;;;;;5.80;3.40;;;20.60;67.10;;;;;;4899997;29;20088;-76
2023/06/15 07:13:53;;;;;;;6.90;3.30;;;20.70;67.90;;;;;;4919250;29;20520;-76
2023/06/15 07:16:19;;;;;;;6.07;3.38;;;20.70;67.90;;;;;;4902137;29;20364;-76
2023/06/15 07:18:45;;;;;;;6.53;3.40;;;20.70;67.20;;;;;;4919237;29;20042;-76
2023/06/15 07:21:11;;;;;;;8.07;3.75;;;20.80;67.70;;;;;;4878837;29;20496;-76
2023/06/15 07:23:37;;;;;;;5.95;3.45;;;20.90;69.10;;;;;;4886460;29;20047;-76
2023/06/15 07:26:02;;;;;;;5.20;3.05;;;20.90;68.80;;;;;;4901792;29;20415;-75
2023/06/15 07:28:28;;;;;;;4.78;3.00;;;21.00;68.70;;;;;;4886778;29;20051;-75
2023/06/15 07:30:54;;;;;;;5.85;3.08;;;21.10;68.80;;;;;;4902205;29;20064;-75
2023/06/15 07:33:20;;;;;;;6.95;3.50;;;21.20;67.50;;;;;;4901820;29;20048;-75
2023/06/15 07:35:46;;;;;;;5.72;3.15;;;21.30;66.90;;;;;;4893696;29;20152;-75
2023/06/15 07:38:14;;;;;;;5.72;3.20;;;21.60;64.60;;;;;;4886586;29;20131;-75
2023/06/15 07:40:41;;;;;;;5.80;3.28;;;21.80;65.70;;;;;;4886322;29;20107;-75
2023/06/15 07:43:09;;;;;;;7.68;2.85;;;22.00;66.90;;;;;;4886458;29;20131;-76
2023/06/15 07:45:36;;;;;;;7.03;3.33;;;22.30;67.80;;;;;;4885883;29;20123;-76
2023/06/15 07:48:05;;;;;;;5.75;3.67;;;22.90;67.10;;;;;;4885296;29;20047;-76
2023/06/15 07:50:31;;;;;;;6.30;3.60;;;23.70;65.90;;;;;;4878306;29;20040;-76
2023/06/15 07:52:57;;;;;;;8.30;3.28;;;24.70;63.00;;;;;;4901761;29;20070;-76
2023/06/15 07:55:23;;;;;;;7.68;3.50;;;25.30;56.90;;;;;;4884960;29;20396;-76
2023/06/15 07:57:48;;;;;;;7.30;3.03;;;25.60;54.60;;;;;;4878904;29;20040;-76
2023/06/15 08:00:14;;;;;;;5.50;3.20;;;25.90;55.40;;;;;;4885101;29;20044;-76
2023/06/15 08:02:43;;;;;;;4.28;3.10;;;26.20;54.10;;;;;;4885443;29;20106;-76
2023/06/15 08:05:09;;;;;;;7.00;3.08;;;26.60;53.40;;;;;;4884410;29;20044;-76
2023/06/15 08:07:34;;;;;;;6.53;2.78;;;27.20;53.60;;;;;;4892634;29;20522;-76
2023/06/15 08:10:03;;;;;;;6.07;2.80;;;27.70;52.70;;;;;;4900280;29;20067;-76
2023/06/15 08:12:28;;;;;;;5.43;2.92;;;28.20;52.40;;;;;;4885385;29;20411;-76
2023/06/15 08:14:54;;;;;;;7.30;3.00;;;28.50;48.30;;;;;;4884856;29;20044;-76
2023/06/15 08:17:20;;;;;;;3.90;2.70;;;28.50;48.20;;;;;;4884346;29;20048;-76
2023/06/15 08:19:47;;;;;;;5.65;2.78;;;28.40;47.10;;;;;;4885834;29;20036;-76
2023/06/15 08:22:13;;;;;;;4.22;2.97;;;28.50;47.80;;;;;;4884191;29;20051;-76
2023/06/15 08:24:39;;;;;;;6.05;2.83;;;28.90;44.50;;;;;;4884148;29;20047;-76
2023/06/15 08:27:05;;;;;;;4.53;2.70;;;28.70;45.50;;;;;;4884567;29;20407;-76
2023/06/15 08:29:33;;;;;;;3.95;2.80;;;28.60;45.00;;;;;;4884381;29;20040;-76
2023/06/15 08:31:59;;;;;;;4.25;3.00;;;28.60;44.30;;;;;;4879205;29;20048;-76
2023/06/15 08:34:25;;;;;;;4.32;2.90;;;28.70;44.40;;;;;;4898792;29;20067;-76
2023/06/15 08:36:51;;;;;;;4.00;2.58;;;28.30;43.50;;;;;;4900704;29;20080;-76
2023/06/15 08:39:17;;;;;;;6.03;3.05;;;28.10;43.30;;;;;;4884784;29;20086;-76
2023/06/15 08:41:45;;;;;;;4.15;2.53;;;27.80;43.90;;;;;;4885191;29;20050;-76
2023/06/15 08:44:13;;;;;;;3.20;2.75;;;27.70;44.50;;;;;;4884266;29;20051;-76
2023/06/15 08:46:42;;;;;;;6.10;2.50;;;27.90;43.20;;;;;;4869175;29;20036;-76
2023/06/15 08:49:11;;;;;;;4.63;2.63;;;28.00;43.90;;;;;;4900467;29;20044;-76
2023/06/15 08:51:38;;;;;;;4.32;2.63;;;28.30;44.20;;;;;;4900021;29;20036;-76
2023/06/15 08:54:06;;;;;;;4.15;2.63;;;28.70;41.70;;;;;;4884378;29;20083;-76
2023/06/15 08:56:31;;;;;;;4.22;2.63;;;28.80;42.10;;;;;;4836529;29;1185058;-76
2023/06/15 08:59:00;;;;;;;6.63;2.80;;;28.70;42.30;;;;;;4885941;29;20055;-76
2023/06/15 09:01:27;;;;;;;7.10;3.13;;;28.80;44.10;;;;;;4885594;29;20118;-77
2023/06/15 09:03:55;;;;;;;4.00;2.70;;;29.40;41.10;;;;;;4900541;29;20037;-76
2023/06/15 09:06:24;;;;;;;4.32;2.58;;;29.70;38.90;;;;;;4877339;29;20048;-76
2023/06/15 09:08:51;;;;;;;4.85;2.38;;;29.10;41.60;;;;;;4885057;29;20055;-77
2023/06/15 09:11:18;;;;;;;6.18;2.90;;;29.30;41.70;;;;;;4887383;29;20040;-77
2023/06/15 09:13:48;;;;;;;4.05;2.30;;;29.90;37.50;;;;;;4885017;29;20072;-76
2023/06/15 09:16:14;;;;;;;3.40;2.50;;;29.90;37.70;;;;;;4884899;29;20398;-76
2023/06/15 09:18:53;;;;;;;4.38;2.80;;;29.40;36.40;;;;;;4881424;29;20045;-78
2023/06/15 09:21:22;;;;;;;4.30;2.60;;;29.00;37.30;;;;;;4868530;29;20402;-76
2023/06/15 09:23:47;;;;;;;4.00;2.45;;;28.80;37.90;;;;;;4883300;29;20052;-76
2023/06/15 09:26:23;;;;;;;4.75;2.75;;;28.50;39.10;;;;;;4883891;29;20119;-76
2023/06/15 09:28:49;;;;;;;3.17;2.20;;;28.70;39.00;;;;;;4883547;29;20055;-76
2023/06/15 09:31:34;;;;;;;5.18;2.92;;;29.10;36.40;;;;;;4878942;29;20136;-76
2023/06/15 09:34:02;;;;;;;2.72;2.17;;;29.10;37.70;;;;;;4902317;29;20064;-76
2023/06/15 09:36:34;;;;;;;4.38;2.50;;;29.20;37.70;;;;;;4902736;29;20115;-76
2023/06/15 09:39:00;;;;;;;4.13;2.43;;;29.20;36.90;;;;;;4903173;29;20510;-76
2023/06/15 09:41:25;;;;;;;4.93;2.30;;;29.20;35.70;;;;;;4887491;29;20405;-76
2023/06/15 09:43:53;;;;;;;5.65;2.53;;;29.10;35.80;;;;;;4888973;29;20051;-76
2023/06/15 09:46:20;;;;;;;2.90;2.20;;;29.10;35.70;;;;;;4889462;29;20044;-76
2023/06/15 09:48:49;;;;;;;3.65;2.63;;;29.00;38.40;;;;;;4903181;29;20060;-76
2023/06/15 09:51:16;;;;;;;4.63;2.30;;;29.60;34.80;;;;;;4888044;29;20103;-76
2023/06/15 09:53:43;;;;;;;3.15;2.40;;;29.60;34.20;;;;;;4888081;29;20077;-76
2023/06/15 09:56:10;;;;;;;4.03;2.75;;;29.50;35.10;;;;;;4904575;29;20044;-76
2023/06/15 09:58:36;;;;;;;3.30;2.72;;;29.50;34.30;;;;;;4887571;29;20066;-76
2023/06/15 10:01:04;;;;;;;3.97;2.70;;;29.40;35.00;;;;;;4881759;29;20488;-76
2023/06/15 10:03:32;;;;;;;2.67;2.38;;;29.30;35.40;;;;;;4899392;29;20123;-76
2023/06/15 10:06:16;;;;;;;4.15;2.70;;;29.40;34.20;;;;;;4884307;29;20047;-75
2023/06/15 10:08:44;;;;;;;3.72;2.78;;;29.40;35.10;;;;;;4882969;29;20040;-75
2023/06/15 10:11:11;;;;;;;2.97;2.67;;;29.20;33.70;;;;;;4896250;29;20040;-76
2023/06/15 10:13:51;;;;;;;3.50;2.55;;;29.00;35.60;;;;;;4888468;29;20112;-76
2023/06/15 10:16:20;;;;;;;4.35;2.75;;;29.20;35.70;;;;;;4887079;29;20040;-76
2023/06/15 10:18:49;;;;;;;5.03;2.88;;;29.20;36.40;;;;;;4887952;29;20451;-76
2023/06/15 10:21:18;;;;;;;5.38;2.90;;;29.60;36.40;;;;;;4903730;29;20048;-76
2023/06/15 10:23:49;;;;;;;4.60;2.92;;;30.00;35.20;;;;;;4885841;29;20040;-76
2023/06/15 10:26:15;;;;;;;3.92;3.10;;;30.40;36.40;;;;;;4877449;29;20452;-76
2023/06/15 10:28:46;;;;;;;4.78;3.30;;;30.80;35.10;;;;;;4901001;29;20044;-76
2023/06/15 10:31:35;;;;;;;4.93;2.80;;;30.70;34.80;;;;;;4885469;29;20052;-76
2023/06/15 10:34:28;;;;;;;3.55;2.67;;;30.10;35.70;;;;;;4901887;29;20044;-76
2023/06/15 10:36:53;;;;;;;;;;;30.10;36.20;;;;;;4887188;29;20376;-76
2023/06/15 10:39:33;;;;;;;3.40;2.67;;;30.40;34.70;;;;;;4900216;29;19987;-76
2023/06/15 10:42:06;;;;;;;3.47;2.53;;;30.50;35.30;;;;;;4897552;29;20347;-76
2023/06/15 10:44:32;;;;;;;4.22;2.80;;;30.70;35.90;;;;;;4902355;29;20521;-76
2023/06/15 10:47:10;;;;;;;3.00;2.70;;;31.00;33.90;;;;;;4901923;29;20088;-76
2023/06/15 10:49:36;;;;;;;3.55;2.67;;;30.70;37.00;;;;;;4902633;29;20044;-76
2023/06/15 10:52:06;;;;;;;3.10;2.60;;;31.00;35.90;;;;;;4880110;29;20061;-76
2023/06/15 10:54:31;;;;;;;4.80;2.92;;;31.00;35.80;;;;;;4901212;29;20040;-76
2023/06/15 10:56:57;;;;;;;3.80;2.78;;;30.70;36.10;;;;;;4887356;29;20100;-76
2023/06/15 10:59:48;;;;;;;4.97;2.78;;;30.60;37.10;;;;;;4887191;29;20040;-76
2023/06/15 11:02:31;;;;;;;6.95;2.75;;;30.60;37.70;;;;;;4886512;29;20112;-76
2023/06/15 11:04:59;;;;;;;;;;;30.50;37.60;;;;;;4886831;29;20388;-76
2023/06/15 11:07:30;;;;;;;3.20;2.63;;;31.00;36.10;;;;;;4892730;29;19942;-76
2023/06/15 11:10:00;;;;;;;3.33;2.40;;;31.30;34.50;;;;;;4885116;29;20036;-76
2023/06/15 11:12:39;;;;;;;3.70;2.65;;;30.90;35.80;;;;;;4899238;29;20096;-76
2023/06/15 11:15:09;;;;;;;4.22;2.55;;;30.70;34.70;;;;;;4885911;29;20055;-76
2023/06/15 11:18:02;;;;;;;4.25;2.80;;;30.40;34.70;;;;;;4886710;29;20035;-76
2023/06/15 11:20:42;;;;;;;;;;;30.10;35.50;;;;;;4903287;29;20051;-76
2023/06/15 11:23:10;;;;;;;4.53;2.80;;;29.70;37.20;;;;;;4901318;29;20436;-76
2023/06/15 11:25:37;;;;;;;3.72;2.88;;;29.90;37.20;;;;;;4887986;29;20095;-76
2023/06/15 11:28:03;;;;;;;5.35;2.97;;;30.20;39.10;;;;;;4902984;29;20040;-76
2023/06/15 11:30:29;;;;;;;5.05;2.92;;;30.90;38.60;;;;;;4901416;29;20044;-76
2023/06/15 11:32:55;;;;;;;4.82;2.80;;;31.60;34.60;;;;;;4885200;29;20067;-76
2023/06/15 11:35:21;;;;;;;5.25;2.90;;;31.20;35.20;;;;;;4895122;29;20047;-76
2023/06/15 11:37:47;;;;;;;4.80;2.60;;;31.20;35.20;;;;;;4886792;29;20059;-76
2023/06/15 11:40:16;;;;;;;3.55;2.60;;;31.10;35.00;;;;;;4902363;29;20052;-76
2023/06/15 11:42:42;;;;;;;4.80;2.60;;;30.90;35.30;;;;;;4886917;29;20047;-76
2023/06/15 11:45:18;;;;;;;6.00;2.85;;;31.00;35.10;;;;;;4918935;29;20048;-76
2023/06/15 11:47:45;;;;;;;4.53;3.03;;;31.00;34.90;;;;;;4916133;29;20518;-76
2023/06/15 11:50:11;;;;;;;4.47;2.67;;;30.90;37.30;;;;;;4902479;29;20044;-76
2023/06/15 11:52:43;;;;;;;4.55;2.50;;;31.40;34.40;;;;;;4902183;29;20559;-76
2023/06/15 11:55:13;;;;;;;2.97;2.67;;;31.20;35.80;;;;;;4902203;29;20492;-76
2023/06/15 11:57:41;;;;;;;3.45;2.90;;;31.20;33.90;;;;;;4902312;29;20044;-76
2023/06/15 12:00:10;;;;;;;3.20;2.50;;;30.90;34.30;;;;;;4889211;29;20059;-76
2023/06/15 12:02:35;;;;;;;3.25;2.67;;;30.60;35.40;;;;;;4873782;29;20063;-76
2023/06/15 12:05:02;;;;;;;5.50;3.00;;;30.80;33.20;;;;;;4901728;29;20044;-76
2023/06/15 12:07:34;;;;;;;3.55;2.60;;;30.50;33.50;;;;;;4944312;23;20044;-77
2023/06/15 12:10:00;;;;;;;4.90;2.80;;;30.60;34.20;;;;;;4920289;29;20043;-77
2023/06/15 12:12:30;;;;;;;4.10;2.90;;;30.60;35.60;;;;;;4936062;29;20040;-77
2023/06/15 12:14:56;;;;;;;3.38;2.67;;;30.90;35.00;;;;;;4935171;29;20050;-80
2023/06/15 12:17:33;;;;;;;5.55;2.75;;;30.80;36.30;;;;;;4927638;29;20126;-79
2023/06/15 12:20:09;;;;;;;3.92;2.78;;;31.20;34.80;;;;;;4935958;29;20642;-77
2023/06/15 12:22:47;;;;;;;4.82;2.78;;;31.50;35.00;;;;;;4936286;29;20402;-77
2023/06/15 12:25:14;;;;;;;4.88;2.70;;;31.40;36.80;;;;;;4929912;29;20044;-77
2023/06/15 12:27:49;;;;;;;3.08;2.50;;;31.70;34.90;;;;;;4919649;29;20044;-77
2023/06/15 12:30:17;;;;;;;3.20;2.70;;;31.90;34.60;;;;;;4935710;29;20035;-78
2023/06/15 12:32:47;;;;;;;4.03;2.58;;;32.40;34.80;;;;;;4936006;29;20423;-78
2023/06/15 12:35:37;;;;;;;3.90;2.50;;;32.90;33.00;;;;;;4935625;29;20073;-77
2023/06/15 12:38:06;;;;;;;3.78;2.47;;;32.90;32.10;;;;;;4935386;29;20048;-77
2023/06/15 12:40:33;;;;;;;4.15;2.42;;;32.30;33.90;;;;;;4931947;29;20046;-78
2023/06/15 12:43:05;;;;;;;4.25;2.67;;;32.40;34.90;;;;;;4928523;29;20047;-77
2023/06/15 12:45:33;;;;;;;4.13;2.70;;;32.70;34.10;;;;;;4926042;29;20138;-77
2023/06/15 12:48:00;;;;;;;5.28;3.08;;;32.80;32.30;;;;;;4935090;29;20042;-77
2023/06/15 12:50:28;;;;;;;4.07;2.53;;;32.50;34.40;;;;;;4934208;29;20040;-77
2023/06/15 12:52:56;;;;;;;4.00;2.30;;;32.80;36.10;;;;;;4934748;29;20114;-77
2023/06/15 12:55:22;;;;;;;3.30;2.72;;;33.50;34.50;;;;;;4935310;29;20047;-76
2023/06/15 12:57:48;;;;;;;7.57;3.33;;;33.90;32.50;;;;;;4932352;29;20046;-76
2023/06/15 13:00:14;;;;;;;5.93;2.92;;;33.10;32.80;;;;;;4935030;29;20100;-78
2023/06/15 13:02:39;;;;;;;4.38;2.50;;;32.30;34.00;;;;;;4935430;29;20509;-77
2023/06/15 13:05:06;;;;;;;4.15;2.45;;;32.20;35.00;;;;;;4933505;29;20050;-77
2023/06/15 13:07:32;;;;;;;3.53;2.40;;;32.50;35.20;;;;;;4934443;29;20040;-77
2023/06/15 13:09:59;;;;;;;4.22;2.60;;;33.40;35.00;;;;;;4934434;29;20090;-77
2023/06/15 13:12:25;;;;;;;3.30;2.85;;;33.90;34.60;;;;;;4918317;29;20046;-77
2023/06/15 13:14:51;;;;;;;2.63;2.35;;;34.20;32.00;;;;;;4933124;29;20039;-77
2023/06/15 13:17:17;;;;;;;3.35;2.60;;;33.70;31.40;;;;;;4918677;29;20043;-77
2023/06/15 13:19:43;;;;;;;4.63;2.67;;;33.10;32.60;;;;;;4931967;29;20136;-77
2023/06/15 13:22:08;;;;;;;4.97;2.60;;;32.70;32.90;;;;;;4930505;29;20526;-77